Decoded Metar for KSYR (SYRACUSE in NY, USA) (IATA:SYR) | Meteo·Mobile Aviation Weather
aviador You're here:

KSYR Decoded Metar

SYRACUSE in NY, USA
Report Time2019-03-21 19:54:00
UTC Time2019-03-21 22:10:17
Flight Rules Old
Wind160° at 09 kt
W.Decomp.*RWY 15: 8.3 kt HW 3.5 kt RCW
RWY 10: 2.6 kt HW 8.6 kt RCW
W.Rank160° ranks 25
Current wind is above 160° avg. (8.1)
Visibility9999 m
Phenomena:N/A
Clouds:Broken 033 Hf
Overcast 045 Hf
Expected CloudBase > 2,400 ft AGL from Temp-Dew spread
Ceiling3,300 ft
Temp09°C (ISA -5)
Dew Point03°C (66% RH)
AAT4.3°C
QNH1012 hPa
Density Alt-62 ft
Elevation417 ft
Report Wrong Elevation
Raw Report
KSYR 211954Z 16009KT 10SM BKN033 OVC045 09/03 A2988 RMK AO2 SLP116
T00890028=

Extra information for KSYR:More info

Metar Taf Metar & Taf Last 4 Metars F.Rules Stats Wind Profile Meteogram Temp Stats Airport Information Weather charts Add Link Nearby VenuesMetar ALERT Operation Metar Decoded Social comments

AIRNAV info for KSYR